Time;durP1;ratioP1;P1;durP2;ratioP2;P2;SDS_P1;SDS_P2;PMS_P1;PMS_P2;Temp;Humidity;BMP_temperature;BMP_pressure;BME280_temperature;BME280_humidity;BME280_pressure;Samples;Min_cycle;Max_cycle;Signal;HPM_P1;HPM_P2
2023/05/16 00:01:18;;;;;;;16.52;5.20;;;11.70;99.90;;;;;;5046769;28;20049;-68
2023/05/16 00:03:44;;;;;;;19.65;5.93;;;11.60;99.90;;;;;;5044941;28;20479;-68
2023/05/16 00:06:10;;;;;;;17.90;4.78;;;11.60;99.90;;;;;;5049832;28;20043;-68
2023/05/16 00:08:35;;;;;;;19.85;5.60;;;11.50;99.90;;;;;;5048871;28;20036;-68
2023/05/16 00:11:01;;;;;;;13.32;5.63;;;11.50;99.90;;;;;;5050706;28;20461;-68
2023/05/16 00:13:28;;;;;;;22.13;5.53;;;11.50;1.00;;;;;;5051707;28;20059;-68
2023/05/16 00:15:54;;;;;;;23.38;7.15;;;11.50;1.00;;;;;;5051041;28;20033;-68
2023/05/16 00:18:21;;;;;;;25.15;7.05;;;11.50;1.00;;;;;;5049996;28;20045;-68
2023/05/16 00:20:48;;;;;;;17.75;5.43;;;11.60;1.00;;;;;;5049577;28;20152;-68
2023/05/16 00:23:14;;;;;;;18.67;4.47;;;11.50;1.00;;;;;;5050895;28;20546;-68
2023/05/16 00:25:40;;;;;;;18.95;4.43;;;11.50;1.00;;;;;;5050662;28;20033;-68
2023/05/16 00:28:07;;;;;;;15.27;4.75;;;11.50;1.00;;;;;;5050948;28;20040;-68
2023/05/16 00:30:33;;;;;;;14.10;5.60;;;11.50;99.90;;;;;;5050867;28;20072;-68
2023/05/16 00:32:58;;;;;;;18.65;5.38;;;11.50;99.90;;;;;;5051300;28;20080;-68
2023/05/16 00:35:24;;;;;;;18.58;5.65;;;11.50;99.90;;;;;;5046368;28;20042;-68
2023/05/16 00:37:50;;;;;;;20.23;6.00;;;11.40;1.00;;;;;;5050110;28;20052;-68
2023/05/16 00:40:15;;;;;;;22.23;6.60;;;11.40;1.00;;;;;;5050127;28;20094;-67
2023/05/16 00:42:41;;;;;;;18.25;6.20;;;11.50;1.00;;;;;;5049928;28;20551;-68
2023/05/16 00:45:08;;;;;;;19.83;6.38;;;11.50;1.00;;;;;;5049072;28;20045;-68
2023/05/16 00:47:34;;;;;;;16.80;5.97;;;11.50;1.00;;;;;;5048125;28;20183;-67
2023/05/16 00:50:00;;;;;;;17.75;6.78;;;11.60;1.00;;;;;;5050674;28;20047;-68
2023/05/16 00:52:26;;;;;;;21.52;7.78;;;11.50;1.00;;;;;;5049389;28;20289;-68
2023/05/16 00:54:51;;;;;;;19.52;8.25;;;11.60;35.50;;;;;;5048366;28;20106;-68
2023/05/16 00:57:17;;;;;;;20.17;6.80;;;11.60;75.70;;;;;;5047317;28;20282;-68
2023/05/16 00:59:46;;;;;;;19.33;5.80;;;11.50;99.70;;;;;;5050839;28;20398;-68
2023/05/16 01:02:12;;;;;;;22.30;5.45;;;11.50;94.80;;;;;;5046181;28;20033;-68
2023/05/16 01:04:39;;;;;;;22.65;7.18;;;11.50;30.50;;;;;;5050608;28;20087;-68
2023/05/16 01:07:05;;;;;;;19.40;6.18;;;11.50;8.80;;;;;;5048991;28;20549;-68
2023/05/16 01:09:31;;;;;;;18.02;6.75;;;11.80;1.00;;;;;;5050188;28;20128;-68
2023/05/16 01:12:20;;;;;;;20.80;5.88;;;11.40;4.50;;;;;;5048875;28;20128;-68
2023/05/16 01:14:51;;;;;;;17.30;6.30;;;11.40;1.00;;;;;;5049250;28;20119;-68
2023/05/16 01:17:37;;;;;;;19.23;5.18;;;11.40;1.00;;;;;;5048743;28;20040;-68
2023/05/16 01:20:30;;;;;;;19.90;6.18;;;11.30;1.10;;;;;;5032243;28;20055;-68
2023/05/16 01:23:19;;;;;;;15.52;5.18;;;11.40;7.70;;;;;;5048407;28;20056;-68
2023/05/16 01:26:08;;;;;;;22.30;5.85;;;11.30;8.90;;;;;;5049910;28;20487;-68
2023/05/16 01:28:34;;;;;;;22.83;5.97;;;11.30;39.40;;;;;;5049263;28;20506;-68
2023/05/16 01:31:00;;;;;;;23.73;6.35;;;11.40;72.30;;;;;;5048959;28;20116;-67
2023/05/16 01:33:25;;;;;;;22.30;5.60;;;11.40;96.30;;;;;;5049639;28;20136;-68
2023/05/16 01:36:12;;;;;;;16.33;4.38;;;11.50;99.90;;;;;;5049459;28;20037;-68
2023/05/16 01:38:44;;;;;;;;;;;11.50;41.20;;;;;;5041987;28;20075;-68
2023/05/16 01:42:03;;;;;;;17.67;5.30;;;11.40;1.00;;;;;;5049457;28;19947;-67
2023/05/16 01:44:52;;;;;;;15.05;4.68;;;11.30;1.00;;;;;;5046900;28;20121;-67
2023/05/16 01:47:20;;;;;;;19.35;4.40;;;11.30;1.00;;;;;;5036519;28;20526;-67
2023/05/16 01:50:13;;;;;;;15.40;5.05;;;11.30;99.90;;;;;;5048995;28;20045;-67
2023/05/16 01:53:10;;;;;;;15.60;4.78;;;11.30;99.90;;;;;;5048150;28;20041;-68
2023/05/16 01:55:47;;;;;;;19.63;4.75;;;11.20;99.90;;;;;;5049014;28;20051;-68
2023/05/16 01:58:14;;;;;;;14.20;4.13;;;11.20;99.90;;;;;;5047064;28;20051;-68
2023/05/16 02:00:40;;;;;;;21.05;5.80;;;11.20;99.90;;;;;;5049512;28;20041;-68
2023/05/16 02:03:06;;;;;;;22.38;6.18;;;11.20;99.90;;;;;;5049273;28;20091;-67
2023/05/16 02:05:32;;;;;;;15.95;5.28;;;11.20;99.90;;;;;;5049067;28;20041;-67
2023/05/16 02:07:58;;;;;;;18.48;5.00;;;11.10;99.90;;;;;;5048473;28;20102;-67
2023/05/16 02:10:25;;;;;;;18.55;4.85;;;11.10;99.90;;;;;;5049447;28;20044;-67
2023/05/16 02:12:50;;;;;;;18.42;4.22;;;11.10;99.90;;;;;;5047913;28;20041;-68
2023/05/16 02:15:16;;;;;;;9.27;3.40;;;11.10;99.90;;;;;;5030891;28;20519;-67
2023/05/16 02:17:42;;;;;;;19.02;4.93;;;11.10;99.90;;;;;;5042186;28;20112;-68
2023/05/16 02:20:09;;;;;;;12.57;4.65;;;11.10;99.90;;;;;;5031049;28;20180;-68
2023/05/16 02:22:35;;;;;;;12.75;4.90;;;11.10;99.90;;;;;;5040757;28;20371;-67
2023/05/16 02:25:02;;;;;;;17.42;5.00;;;11.10;99.90;;;;;;5049391;28;20083;-68
2023/05/16 02:27:28;;;;;;;17.95;6.10;;;11.30;99.90;;;;;;5047649;28;20589;-68
2023/05/16 02:29:54;;;;;;;15.05;6.32;;;11.80;99.90;;;;;;5049512;28;20098;-68
2023/05/16 02:32:20;;;;;;;16.20;5.78;;;11.40;99.90;;;;;;5064455;28;20534;-68
2023/05/16 02:34:45;;;;;;;12.23;4.53;;;11.40;99.90;;;;;;5049139;28;20156;-68
2023/05/16 02:37:11;;;;;;;14.75;4.63;;;11.40;99.90;;;;;;5048962;28;20403;-68
2023/05/16 02:39:36;;;;;;;15.32;4.95;;;11.40;99.90;;;;;;5048758;28;20048;-67
2023/05/16 02:42:03;;;;;;;11.07;4.30;;;11.30;99.90;;;;;;5045366;28;20106;-68
2023/05/16 02:44:28;;;;;;;14.52;4.40;;;11.30;99.90;;;;;;5037730;28;20029;-68
2023/05/16 02:46:54;;;;;;;13.70;4.80;;;11.20;99.90;;;;;;5052005;28;20040;-68
2023/05/16 02:49:20;;;;;;;12.70;4.03;;;11.20;99.90;;;;;;5044915;28;20056;-68
2023/05/16 02:51:46;;;;;;;14.05;4.05;;;11.20;99.90;;;;;;5047850;28;20372;-67
2023/05/16 02:54:11;;;;;;;14.30;4.07;;;11.20;99.90;;;;;;5048462;28;20090;-68
2023/05/16 02:56:37;;;;;;;10.93;4.25;;;11.20;99.90;;;;;;5048925;28;20049;-68
2023/05/16 02:59:04;;;;;;;10.90;5.28;;;11.20;99.90;;;;;;5047427;28;20041;-68
2023/05/16 03:01:29;;;;;;;14.80;3.90;;;11.10;99.90;;;;;;5048597;28;20124;-68
2023/05/16 03:03:55;;;;;;;15.00;4.88;;;11.10;99.90;;;;;;5047392;28;20546;-67
2023/05/16 03:06:21;;;;;;;11.38;4.05;;;11.20;99.90;;;;;;5049271;28;20533;-67
2023/05/16 03:08:46;;;;;;;12.68;4.72;;;11.20;99.90;;;;;;5048689;28;20049;-67
2023/05/16 03:11:13;;;;;;;13.50;3.83;;;11.60;99.90;;;;;;5052704;28;20477;-67
2023/05/16 03:13:38;;;;;;;10.68;4.13;;;11.40;99.90;;;;;;5047419;28;20037;-67
2023/05/16 03:16:05;;;;;;;15.60;4.32;;;11.40;99.90;;;;;;5036346;28;20044;-67
2023/05/16 03:18:30;;;;;;;18.75;5.10;;;11.40;99.90;;;;;;5052060;28;20542;-67
2023/05/16 03:20:57;;;;;;;9.85;4.43;;;11.50;1.00;;;;;;5052595;28;20148;-68
2023/05/16 03:23:22;;;;;;;16.67;4.65;;;11.50;99.90;;;;;;5051108;28;20048;-67
2023/05/16 03:25:48;;;;;;;14.15;4.28;;;11.40;1.00;;;;;;5051141;28;20091;-68
2023/05/16 03:28:16;;;;;;;14.55;4.53;;;11.30;99.90;;;;;;5052161;28;20087;-68
2023/05/16 03:30:42;;;;;;;10.13;4.18;;;11.30;99.90;;;;;;5052171;28;20040;-67
2023/05/16 03:33:08;;;;;;;14.73;5.18;;;11.30;99.90;;;;;;5050711;28;20071;-67
2023/05/16 03:35:35;;;;;;;16.45;5.28;;;11.30;99.90;;;;;;5050802;28;20501;-68
2023/05/16 03:38:01;;;;;;;15.68;5.70;;;11.30;99.90;;;;;;5050197;28;20067;-67
2023/05/16 03:40:26;;;;;;;15.45;4.28;;;11.30;99.90;;;;;;5037961;28;20049;-67
2023/05/16 03:42:52;;;;;;;7.97;3.60;;;11.30;99.90;;;;;;5051849;28;20060;-67
2023/05/16 03:45:17;;;;;;;14.68;4.70;;;11.30;99.90;;;;;;5035966;28;20045;-67
2023/05/16 03:47:43;;;;;;;12.48;4.40;;;11.30;99.90;;;;;;5048952;28;20033;-67
2023/05/16 03:50:09;;;;;;;9.20;3.53;;;11.90;99.90;;;;;;5051510;28;20033;-67
2023/05/16 03:52:35;;;;;;;16.48;5.43;;;11.30;99.90;;;;;;5049804;28;20040;-68
2023/05/16 03:55:02;;;;;;;20.25;7.07;;;11.40;99.90;;;;;;5050685;28;20055;-67
2023/05/16 03:57:30;;;;;;;12.57;7.32;;;11.40;99.90;;;;;;5050368;28;20053;-68
2023/05/16 03:59:56;;;;;;;12.68;4.65;;;11.30;99.90;;;;;;5050221;28;20063;-67
2023/05/16 04:02:22;;;;;;;14.95;4.60;;;11.30;99.90;;;;;;5050325;28;20049;-68
2023/05/16 04:04:47;;;;;;;14.35;5.72;;;11.30;99.90;;;;;;5050168;28;20045;-67
2023/05/16 04:07:13;;;;;;;17.67;6.95;;;11.30;99.90;;;;;;5051283;28;20044;-67
2023/05/16 04:09:38;;;;;;;17.73;5.50;;;11.30;1.00;;;;;;5050037;28;20530;-67
2023/05/16 04:12:04;;;;;;;14.27;5.15;;;11.50;1.00;;;;;;5049897;28;20399;-67
2023/05/16 04:14:30;;;;;;;12.07;4.82;;;11.60;1.00;;;;;;5033144;28;20044;-67
2023/05/16 04:16:56;;;;;;;18.90;5.70;;;11.70;1.00;;;;;;5050122;28;20053;-67
2023/05/16 04:19:22;;;;;;;11.65;4.97;;;11.70;1.00;;;;;;5049313;28;20532;-67
2023/05/16 04:21:47;;;;;;;21.10;5.10;;;11.70;1.00;;;;;;5050382;28;20041;-68
2023/05/16 04:24:13;;;;;;;12.35;3.97;;;11.70;1.00;;;;;;5046627;28;20049;-67
2023/05/16 04:26:38;;;;;;;12.25;3.80;;;11.70;1.00;;;;;;5030221;28;20042;-67
2023/05/16 04:29:04;;;;;;;11.45;4.18;;;11.80;1.00;;;;;;5046659;28;20049;-67
2023/05/16 04:31:30;;;;;;;12.02;5.15;;;11.80;1.00;;;;;;5048316;28;20115;-67
2023/05/16 04:33:56;;;;;;;10.57;3.42;;;11.80;1.00;;;;;;5033484;28;20048;-67
2023/05/16 04:36:22;;;;;;;14.13;3.33;;;11.70;99.90;;;;;;5029865;28;20496;-67
2023/05/16 04:38:48;;;;;;;8.48;3.17;;;11.60;99.90;;;;;;5048230;28;20045;-68
2023/05/16 04:41:14;;;;;;;10.35;3.28;;;11.50;99.90;;;;;;5050769;28;20184;-67
2023/05/16 04:43:40;;;;;;;10.50;3.33;;;11.50;99.90;;;;;;5049292;28;20103;-68
2023/05/16 04:46:06;;;;;;;9.05;3.30;;;11.50;99.90;;;;;;5050718;28;20049;-67
2023/05/16 04:48:33;;;;;;;20.75;4.80;;;11.40;99.90;;;;;;5049552;28;20133;-67
2023/05/16 04:50:58;;;;;;;13.82;4.93;;;11.40;99.90;;;;;;5049748;28;20120;-67
2023/05/16 04:53:24;;;;;;;13.48;5.47;;;11.50;99.90;;;;;;5050442;28;20123;-67
2023/05/16 04:55:49;;;;;;;14.18;6.47;;;11.40;99.90;;;;;;5050563;28;20044;-67
2023/05/16 04:58:15;;;;;;;12.40;5.47;;;11.50;99.90;;;;;;5049116;28;20120;-67
2023/05/16 05:00:41;;;;;;;7.78;4.95;;;11.50;99.90;;;;;;5050368;28;20041;-67
2023/05/16 05:03:07;;;;;;;11.75;6.15;;;11.50;99.90;;;;;;5045711;28;20384;-67
2023/05/16 05:05:32;;;;;;;11.38;6.57;;;11.60;99.90;;;;;;5029427;28;20041;-67
2023/05/16 05:07:59;;;;;;;10.80;5.43;;;11.60;1.00;;;;;;5039187;28;20140;-67
2023/05/16 05:10:26;;;;;;;12.02;4.07;;;11.60;1.00;;;;;;5029104;28;20084;-67
2023/05/16 05:12:52;;;;;;;13.30;4.18;;;11.70;1.00;;;;;;5045296;28;20094;-67
2023/05/16 05:15:18;;;;;;;9.80;3.45;;;11.70;1.00;;;;;;5048408;28;20132;-67
2023/05/16 05:17:43;;;;;;;9.02;3.42;;;11.70;1.00;;;;;;5050084;28;20052;-67
2023/05/16 05:20:10;;;;;;;10.20;3.13;;;11.70;1.00;;;;;;5050111;28;20033;-67
2023/05/16 05:22:36;;;;;;;11.43;3.10;;;11.90;99.90;;;;;;5049329;28;20049;-68
2023/05/16 05:25:01;;;;;;;15.25;4.90;;;12.00;99.90;;;;;;5050317;28;20056;-67
2023/05/16 05:27:27;;;;;;;16.42;4.90;;;12.10;99.90;;;;;;5048522;28;20685;-67
2023/05/16 05:29:53;;;;;;;12.00;3.90;;;12.20;99.90;;;;;;5040209;28;20438;-67
2023/05/16 05:32:18;;;;;;;16.77;5.43;;;12.20;99.90;;;;;;5041805;28;20084;-67
2023/05/16 05:34:44;;;;;;;14.35;4.20;;;12.20;99.90;;;;;;5038245;28;20442;-67
2023/05/16 05:37:09;;;;;;;15.05;4.38;;;12.20;99.90;;;;;;5041794;28;20390;-67
2023/05/16 05:39:35;;;;;;;11.30;3.70;;;12.20;99.90;;;;;;5030067;28;20052;-67
2023/05/16 05:42:04;;;;;;;14.20;4.85;;;12.20;99.90;;;;;;5047008;28;20033;-68
2023/05/16 05:44:30;;;;;;;13.13;4.47;;;12.30;99.90;;;;;;5054052;28;20162;-67
2023/05/16 05:46:56;;;;;;;15.38;5.15;;;12.30;99.90;;;;;;5051362;28;20539;-68
2023/05/16 05:49:26;;;;;;;12.95;4.22;;;12.30;99.90;;;;;;5043253;28;20171;-68
2023/05/16 05:51:52;;;;;;;15.73;5.03;;;12.30;99.90;;;;;;5048769;28;20377;-67
2023/05/16 05:54:20;;;;;;;15.85;4.15;;;12.30;99.90;;;;;;5054808;28;20074;-67
2023/05/16 05:56:46;;;;;;;11.05;4.03;;;12.40;99.90;;;;;;5061308;28;20104;-68
2023/05/16 05:59:12;;;;;;;10.95;3.40;;;11.80;99.90;;;;;;5047413;28;20064;-67
2023/05/16 06:01:38;;;;;;;16.50;4.25;;;12.70;99.90;;;;;;5055619;28;20040;-67
2023/05/16 06:04:04;;;;;;;11.73;3.60;;;12.70;99.90;;;;;;5048055;28;20072;-66
2023/05/16 06:06:30;;;;;;;11.95;3.38;;;12.60;99.90;;;;;;5043615;28;20382;-65
2023/05/16 06:08:56;;;;;;;13.70;3.53;;;12.40;30.40;;;;;;5049156;28;20098;-66
2023/05/16 06:11:24;;;;;;;9.68;2.88;;;12.30;1.00;;;;;;5047725;28;20098;-66
2023/05/16 06:13:50;;;;;;;12.70;3.67;;;12.20;1.00;;;;;;5039784;28;20126;-65
2023/05/16 06:16:16;;;;;;;12.32;3.60;;;12.10;1.00;;;;;;5047148;28;20522;-66
2023/05/16 06:18:42;;;;;;;11.13;3.75;;;12.30;1.00;;;;;;5048780;28;20087;-66
2023/05/16 06:21:07;;;;;;;11.95;3.20;;;12.30;1.00;;;;;;5048784;28;20052;-66
2023/05/16 06:23:34;;;;;;;10.82;3.88;;;12.90;1.00;;;;;;5048432;28;20044;-66
2023/05/16 06:26:00;;;;;;;18.95;3.55;;;12.60;1.00;;;;;;5046624;28;20044;-66
2023/05/16 06:28:26;;;;;;;16.10;3.78;;;12.70;1.00;;;;;;5044746;28;20044;-65
2023/05/16 06:30:51;;;;;;;12.63;3.53;;;12.80;1.00;;;;;;5046401;28;20078;-66
2023/05/16 06:33:17;;;;;;;13.75;3.58;;;12.90;1.00;;;;;;5045383;28;20041;-66
2023/05/16 06:35:43;;;;;;;14.95;3.88;;;12.90;1.00;;;;;;5047105;28;20055;-66
2023/05/16 06:38:08;;;;;;;16.20;3.78;;;13.00;1.00;;;;;;5048947;28;20041;-66
2023/05/16 06:40:34;;;;;;;13.18;3.78;;;13.00;99.90;;;;;;5050510;28;20458;-66
2023/05/16 06:43:00;;;;;;;16.20;4.60;;;13.00;1.00;;;;;;5047242;28;20037;-66
2023/05/16 06:45:26;;;;;;;18.35;3.78;;;12.90;1.00;;;;;;5051688;28;20037;-66
2023/05/16 06:47:51;;;;;;;17.13;3.90;;;12.80;99.90;;;;;;5050433;28;20032;-75
2023/05/16 06:50:17;;;;;;;13.18;3.88;;;12.90;99.90;;;;;;5067178;28;20044;-69
2023/05/16 06:52:42;;;;;;;16.38;4.53;;;13.00;99.90;;;;;;5051635;28;20044;-65
2023/05/16 06:55:08;;;;;;;13.95;3.60;;;13.20;1.00;;;;;;5051536;28;20040;-65
2023/05/16 06:57:34;;;;;;;15.00;3.72;;;13.30;99.90;;;;;;5049754;28;20045;-66
2023/05/16 06:59:59;;;;;;;14.43;4.43;;;13.20;99.90;;;;;;5050131;28;20367;-66
2023/05/16 07:02:25;;;;;;;15.48;3.78;;;13.10;99.90;;;;;;5050937;28;20126;-66
2023/05/16 07:04:50;;;;;;;17.38;4.63;;;12.90;99.90;;;;;;5050754;28;20037;-67
2023/05/16 07:07:16;;;;;;;16.80;4.15;;;12.80;99.90;;;;;;5047254;28;20734;-67
2023/05/16 07:09:42;;;;;;;19.10;3.72;;;12.60;99.90;;;;;;5048149;28;20140;-67
2023/05/16 07:12:08;;;;;;;14.32;4.28;;;12.50;99.90;;;;;;5057340;28;20131;-67
2023/05/16 07:14:33;;;;;;;15.38;4.20;;;13.00;99.90;;;;;;5048887;28;20033;-67
2023/05/16 07:16:59;;;;;;;13.07;3.83;;;12.90;1.00;;;;;;5044148;28;20049;-67
2023/05/16 07:19:25;;;;;;;12.50;3.92;;;13.00;99.90;;;;;;5043504;28;20123;-67
2023/05/16 07:21:50;;;;;;;13.77;3.65;;;13.20;99.90;;;;;;5034730;28;20483;-67
2023/05/16 07:24:16;;;;;;;10.73;2.90;;;13.40;99.90;;;;;;5040641;28;20553;-67
2023/05/16 07:26:42;;;;;;;13.32;3.45;;;13.50;99.90;;;;;;5043316;28;20127;-67
2023/05/16 07:29:07;;;;;;;13.68;3.83;;;13.50;99.90;;;;;;5030914;28;20045;-67
2023/05/16 07:31:33;;;;;;;13.95;3.78;;;13.40;99.90;;;;;;5038393;28;20045;-67
2023/05/16 07:33:59;;;;;;;11.55;3.72;;;13.20;99.90;;;;;;5041864;28;20039;-67
2023/05/16 07:36:24;;;;;;;11.68;3.30;;;13.00;99.90;;;;;;5038142;28;20124;-67
2023/05/16 07:38:50;;;;;;;14.95;3.72;;;13.10;99.90;;;;;;5022307;28;20092;-67
2023/05/16 07:41:15;;;;;;;12.48;3.75;;;13.30;99.90;;;;;;5040397;28;20111;-68
2023/05/16 07:43:41;;;;;;;14.80;4.15;;;13.70;99.90;;;;;;5048805;28;20037;-67
2023/05/16 07:46:07;;;;;;;13.15;3.10;;;14.00;99.90;;;;;;5051841;28;20041;-67
2023/05/16 07:48:32;;;;;;;13.73;3.90;;;14.30;99.90;;;;;;5049498;28;20041;-67
2023/05/16 07:50:58;;;;;;;15.05;3.90;;;14.50;99.90;;;;;;5046316;28;20547;-68
2023/05/16 07:53:23;;;;;;;12.75;3.38;;;14.30;99.90;;;;;;5054726;28;20048;-68
2023/05/16 07:55:49;;;;;;;15.57;3.95;;;14.40;99.90;;;;;;5046300;28;20033;-68
2023/05/16 07:58:15;;;;;;;15.75;3.80;;;14.20;99.90;;;;;;5049741;28;20090;-68
2023/05/16 08:00:40;;;;;;;12.55;3.22;;;14.10;99.90;;;;;;5050206;28;20041;-68
2023/05/16 08:03:06;;;;;;;12.00;3.35;;;13.80;99.90;;;;;;5049868;28;20033;-68
2023/05/16 08:05:31;;;;;;;12.43;3.40;;;13.90;99.90;;;;;;5051454;28;20041;-68
2023/05/16 08:07:57;;;;;;;14.93;3.58;;;13.70;99.90;;;;;;5046935;28;20755;-68
2023/05/16 08:10:23;;;;;;;13.32;3.45;;;13.80;99.90;;;;;;5030607;28;20120;-69
2023/05/16 08:12:48;;;;;;;9.90;3.13;;;14.10;99.90;;;;;;5040436;28;20052;-68
2023/05/16 08:15:14;;;;;;;15.07;3.83;;;14.20;99.90;;;;;;5051756;28;20103;-68
2023/05/16 08:17:40;;;;;;;10.93;3.58;;;14.30;99.90;;;;;;5049867;28;20083;-68
2023/05/16 08:20:06;;;;;;;17.23;4.00;;;14.20;99.90;;;;;;5044577;28;20412;-69
2023/05/16 08:22:32;;;;;;;16.02;3.67;;;14.40;99.90;;;;;;5037411;28;20084;-69
2023/05/16 08:24:59;;;;;;;11.10;3.20;;;14.80;99.90;;;;;;5049857;28;20570;-68
2023/05/16 08:27:25;;;;;;;13.68;3.70;;;14.30;99.90;;;;;;5050072;28;20461;-68
2023/05/16 08:29:51;;;;;;;14.75;4.05;;;13.90;99.90;;;;;;5050358;28;20041;-68
2023/05/16 08:32:16;;;;;;;16.58;3.30;;;13.80;99.90;;;;;;5049641;28;20041;-68
2023/05/16 08:34:42;;;;;;;12.30;3.30;;;13.60;99.90;;;;;;5049334;28;20051;-68
2023/05/16 08:37:08;;;;;;;14.10;3.58;;;13.80;99.90;;;;;;5049605;28;20076;-69
2023/05/16 08:39:33;;;;;;;15.85;3.40;;;14.00;99.90;;;;;;5049139;28;20049;-68
2023/05/16 08:41:59;;;;;;;13.38;3.17;;;14.30;99.90;;;;;;5047562;28;20037;-69
2023/05/16 08:44:26;;;;;;;12.27;3.55;;;15.30;99.90;;;;;;5045632;28;20033;-69
2023/05/16 08:46:52;;;;;;;13.52;3.35;;;14.50;99.90;;;;;;5032216;28;20518;-69
2023/05/16 08:49:19;;;;;;;11.48;2.60;;;14.70;99.90;;;;;;5048737;28;20053;-67
2023/05/16 08:51:50;;;;;;;16.63;3.60;;;14.80;99.90;;;;;;5048344;28;20037;-70
2023/05/16 08:54:16;;;;;;;12.15;3.33;;;14.80;99.90;;;;;;5045806;28;20032;-66
2023/05/16 08:56:43;;;;;;;14.00;3.08;;;14.90;99.90;;;;;;5048620;28;20078;-70
2023/05/16 08:59:11;;;;;;;10.30;2.90;;;14.90;99.90;;;;;;5049573;28;20350;-71
2023/05/16 09:01:36;;;;;;;13.45;3.60;;;15.10;99.90;;;;;;5048891;28;20037;-71
2023/05/16 09:04:04;;;;;;;12.80;3.45;;;15.20;99.90;;;;;;5048450;28;20403;-70
2023/05/16 09:06:30;;;;;;;13.70;3.40;;;15.10;99.90;;;;;;5048619;28;20041;-70
2023/05/16 09:08:56;;;;;;;10.73;3.13;;;15.10;99.90;;;;;;5049016;28;20048;-70
2023/05/16 09:11:22;;;;;;;11.88;3.13;;;15.10;99.90;;;;;;5048547;28;20043;-70
2023/05/16 09:13:48;;;;;;;11.82;3.30;;;14.60;99.90;;;;;;5048500;28;20041;-70
2023/05/16 09:16:16;;;;;;;14.02;3.20;;;14.30;99.90;;;;;;5048829;28;20045;-69
2023/05/16 09:18:44;;;;;;;13.27;3.20;;;14.60;99.90;;;;;;5048123;28;20051;-69
2023/05/16 09:21:11;;;;;;;11.38;3.47;;;14.10;99.90;;;;;;5048815;28;20514;-69
2023/05/16 09:23:36;;;;;;;14.80;3.40;;;14.10;99.90;;;;;;5047327;28;20052;-69
2023/05/16 09:26:06;;;;;;;11.98;3.00;;;14.00;99.90;;;;;;5049008;28;20037;-69
2023/05/16 09:28:32;;;;;;;16.25;3.45;;;14.50;99.90;;;;;;5048624;28;20049;-69
2023/05/16 09:30:58;;;;;;;10.20;3.30;;;13.80;99.90;;;;;;5048263;28;20574;-69
2023/05/16 09:33:28;;;;;;;12.48;3.05;;;14.20;99.90;;;;;;5048406;28;20116;-69
2023/05/16 09:35:59;;;;;;;13.10;3.10;;;14.60;99.90;;;;;;5049004;28;20033;-69
2023/05/16 09:38:29;;;;;;;13.25;3.15;;;15.10;99.90;;;;;;5047200;28;20053;-69
2023/05/16 09:40:54;;;;;;;11.18;2.90;;;14.50;99.90;;;;;;5047504;28;20064;-69
2023/05/16 09:43:25;;;;;;;11.90;3.13;;;14.20;99.90;;;;;;5031156;28;20380;-69
2023/05/16 09:45:52;;;;;;;13.50;3.25;;;14.00;99.90;;;;;;5048420;28;20117;-69
2023/05/16 09:48:19;;;;;;;10.38;3.22;;;13.90;99.90;;;;;;5039803;28;20507;-69
2023/05/16 09:50:53;;;;;;;13.60;2.90;;;14.00;99.90;;;;;;5048488;28;20509;-69
2023/05/16 09:53:26;;;;;;;9.32;2.78;;;14.10;99.90;;;;;;5047944;28;20049;-68
2023/05/16 09:56:03;;;;;;;10.75;3.00;;;13.90;99.90;;;;;;5028769;28;20075;-68
2023/05/16 09:58:31;;;;;;;15.05;3.60;;;13.70;99.90;;;;;;5040730;28;20149;-68
2023/05/16 10:00:57;;;;;;;14.68;3.05;;;13.60;99.90;;;;;;5029087;28;20118;-68
2023/05/16 10:03:24;;;;;;;14.20;3.67;;;14.00;99.90;;;;;;5046069;28;20048;-68
2023/05/16 10:05:51;;;;;;;11.65;3.22;;;14.50;99.90;;;;;;5047129;28;20041;-69
2023/05/16 10:08:20;;;;;;;9.95;3.08;;;14.60;99.90;;;;;;5047901;28;20052;-68
2023/05/16 10:10:49;;;;;;;12.40;3.50;;;14.20;99.90;;;;;;5047883;28;20084;-68
2023/05/16 10:13:15;;;;;;;12.30;3.80;;;13.90;99.90;;;;;;5047625;28;20044;-68
2023/05/16 10:15:41;;;;;;;16.58;6.57;;;13.50;99.90;;;;;;5047988;28;20040;-68
2023/05/16 10:18:12;;;;;;;19.13;8.45;;;13.20;99.90;;;;;;5044628;28;20127;-68
2023/05/16 10:20:40;;;;;;;8.52;4.20;;;13.10;99.90;;;;;;5048841;28;20036;-67
2023/05/16 10:23:07;;;;;;;11.77;5.85;;;13.00;99.90;;;;;;5047636;28;20068;-67
2023/05/16 10:25:39;;;;;;;10.02;7.57;;;12.60;99.90;;;;;;5047899;28;20041;-68
2023/05/16 10:28:07;;;;;;;14.18;11.00;;;12.10;1.00;;;;;;5047842;28;20170;-68
2023/05/16 10:30:34;;;;;;;14.55;11.40;;;11.60;1.00;;;;;;5044150;28;20400;-68
2023/05/16 10:33:00;;;;;;;18.20;16.15;;;11.30;1.00;;;;;;5040018;28;20123;-68
2023/05/16 10:35:26;;;;;;;17.48;12.70;;;11.30;99.90;;;;;;5047849;28;20045;-68
2023/05/16 10:37:52;;;;;;;15.77;7.53;;;11.50;99.90;;;;;;5047326;28;20540;-68
2023/05/16 10:40:20;;;;;;;15.32;8.45;;;11.80;1.00;;;;;;5047749;28;20195;-68
2023/05/16 10:43:02;;;;;;;13.02;8.07;;;11.90;1.00;;;;;;5047387;28;20055;-67
2023/05/16 10:45:28;;;;;;;10.93;6.32;;;12.00;1.00;;;;;;5040459;28;20127;-68
2023/05/16 10:47:55;;;;;;;17.10;8.73;;;12.10;1.00;;;;;;5046793;28;20116;-68
2023/05/16 10:50:38;;;;;;;15.63;8.27;;;12.20;22.20;;;;;;5049305;28;20132;-68
2023/05/16 10:53:16;;;;;;;11.63;6.03;;;12.40;99.90;;;;;;5046593;28;20399;-68
2023/05/16 10:56:00;;;;;;;8.77;3.70;;;12.30;99.90;;;;;;5047708;28;20415;-68
2023/05/16 10:58:37;;;;;;;11.32;6.30;;;12.20;99.90;;;;;;5045748;28;20128;-68
2023/05/16 11:01:32;;;;;;;6.57;4.35;;;12.20;99.90;;;;;;5047371;28;20120;-68
2023/05/16 11:04:01;;;;;;;9.55;4.03;;;12.60;99.90;;;;;;5059884;28;20437;-68
2023/05/16 11:06:39;;;;;;;13.20;6.35;;;12.80;99.90;;;;;;5047616;28;20132;-68
2023/05/16 11:09:12;;;;;;;10.23;3.78;;;13.00;99.90;;;;;;5031660;28;20041;-68
2023/05/16 11:11:38;;;;;;;12.43;3.72;;;12.90;1.00;;;;;;5027536;28;20448;-68
2023/05/16 11:14:04;;;;;;;11.60;4.88;;;13.30;1.00;;;;;;5043217;28;20036;-68
2023/05/16 11:16:30;;;;;;;12.85;4.25;;;13.30;99.90;;;;;;5047232;28;20059;-69
2023/05/16 11:19:05;;;;;;;12.40;4.68;;;13.50;99.90;;;;;;5046332;28;20455;-69
2023/05/16 11:22:16;;;;;;;11.55;4.13;;;13.60;99.90;;;;;;5030952;28;20422;-69
2023/05/16 11:24:50;;;;;;;12.10;3.95;;;13.60;99.90;;;;;;5040940;28;20085;-69
2023/05/16 11:27:26;;;;;;;10.70;3.85;;;13.70;97.10;;;;;;5047289;28;20045;-69
2023/05/16 11:29:57;;;;;;;11.45;3.35;;;13.80;16.80;;;;;;5048698;28;20094;-68
2023/05/16 11:32:22;;;;;;;13.77;4.30;;;13.90;1.00;;;;;;5050247;28;20076;-69
2023/05/16 11:34:49;;;;;;;11.57;3.83;;;13.90;1.00;;;;;;5050199;28;20206;-69
2023/05/16 11:37:16;;;;;;;11.88;3.10;;;13.90;1.00;;;;;;5049839;28;20036;-69
2023/05/16 11:39:42;;;;;;;11.02;3.60;;;13.90;1.00;;;;;;5030596;28;20061;-69
2023/05/16 11:42:08;;;;;;;9.65;3.20;;;13.80;99.90;;;;;;5038164;28;20494;-69
2023/05/16 11:44:34;;;;;;;7.65;2.70;;;14.00;99.90;;;;;;5050258;28;20043;-69
2023/05/16 11:47:01;;;;;;;7.60;3.00;;;14.00;99.90;;;;;;5050319;28;20090;-68
2023/05/16 11:49:27;;;;;;;8.57;3.08;;;14.00;99.90;;;;;;5051760;28;20051;-68
2023/05/16 11:51:53;;;;;;;10.18;3.55;;;14.00;99.90;;;;;;5050653;28;20043;-68
2023/05/16 11:54:20;;;;;;;14.20;3.20;;;14.20;99.90;;;;;;5050287;28;20090;-68
2023/05/16 11:56:45;;;;;;;8.48;3.08;;;14.30;99.90;;;;;;5050603;28;20487;-68
2023/05/16 11:59:11;;;;;;;14.88;3.03;;;14.30;99.90;;;;;;5049965;28;20098;-69
2023/05/16 12:01:38;;;;;;;7.78;2.65;;;14.40;99.90;;;;;;5050026;28;20044;-69
2023/05/16 12:04:11;;;;;;;9.95;2.75;;;14.40;99.90;;;;;;5049851;28;20045;-68
2023/05/16 12:06:37;;;;;;;12.50;3.03;;;14.30;99.90;;;;;;5050199;28;20041;-68
2023/05/16 12:09:09;;;;;;;8.38;3.10;;;14.10;99.90;;;;;;5049725;28;20178;-67
2023/05/16 12:11:42;;;;;;;11.10;3.10;;;14.00;99.90;;;;;;5049785;28;20044;-68
2023/05/16 12:14:09;;;;;;;9.10;3.20;;;14.00;99.90;;;;;;5029718;28;20559;-68
2023/05/16 12:16:37;;;;;;;11.60;3.35;;;14.00;99.90;;;;;;5030060;28;20484;-68
2023/05/16 12:19:04;;;;;;;13.48;3.55;;;13.90;99.90;;;;;;5042257;28;20040;-68
2023/05/16 12:21:31;;;;;;;10.90;3.70;;;13.90;99.90;;;;;;5049657;28;20049;-68
2023/05/16 12:23:57;;;;;;;9.57;3.42;;;13.90;99.90;;;;;;5049626;28;20070;-68
2023/05/16 12:26:32;;;;;;;14.90;3.65;;;14.00;99.90;;;;;;5049614;28;20041;-68
2023/05/16 12:29:03;;;;;;;10.77;3.10;;;14.10;99.90;;;;;;5049920;28;20415;-68
2023/05/16 12:31:30;;;;;;;11.98;3.05;;;14.20;99.90;;;;;;5046638;28;20047;-68
2023/05/16 12:33:56;;;;;;;11.90;2.92;;;14.30;99.90;;;;;;5041393;28;20033;-68
2023/05/16 12:36:23;;;;;;;11.13;2.80;;;12.60;99.90;;;;;;5049949;28;20351;-68
2023/05/16 12:38:50;;;;;;;7.90;2.97;;;14.10;99.90;;;;;;5049457;28;20507;-68
2023/05/16 12:41:21;;;;;;;15.68;2.75;;;14.20;99.90;;;;;;5047844;28;20047;-68
2023/05/16 12:43:47;;;;;;;8.68;2.97;;;14.40;99.90;;;;;;5046615;28;20147;-68